createdAt,value
2022-08-17T00:00:34.862Z,14.18
2022-08-17T00:03:07.281Z,10.70
2022-08-17T00:05:40.767Z,11.00
2022-08-17T00:08:09.373Z,20.70
2022-08-17T00:10:37.932Z,12.05
2022-08-17T00:13:11.251Z,9.48
2022-08-17T00:15:40.953Z,14.98
2022-08-17T00:18:57.634Z,11.70
2022-08-17T00:20:58.940Z,13.82
2022-08-17T00:23:28.365Z,15.02
2022-08-17T00:25:58.841Z,12.02
2022-08-17T00:28:27.127Z,14.25
2022-08-17T00:31:00.592Z,11.48
2022-08-17T00:33:31.782Z,12.27
2022-08-17T00:36:00.912Z,11.38
2022-08-17T00:38:30.202Z,9.55
2022-08-17T00:41:01.404Z,11.25
2022-08-17T00:43:35.553Z,10.50
2022-08-17T00:46:07.599Z,11.98
2022-08-17T00:48:36.490Z,11.82
2022-08-17T00:51:11.816Z,11.15
2022-08-17T00:53:43.741Z,12.68
2022-08-17T00:56:16.137Z,9.60
2022-08-17T00:58:44.740Z,12.07
2022-08-17T01:01:15.232Z,12.48
2022-08-17T01:03:51.268Z,11.68
2022-08-17T01:06:19.680Z,11.10
2022-08-17T01:08:48.122Z,11.13
2022-08-17T01:11:25.997Z,18.70
2022-08-17T01:13:54.379Z,11.15
2022-08-17T01:16:27.768Z,12.95
2022-08-17T01:18:58.677Z,11.95
2022-08-17T01:21:32.949Z,10.30
2022-08-17T01:24:03.664Z,18.27
2022-08-17T01:26:33.504Z,11.13
2022-08-17T01:29:02.404Z,12.25
2022-08-17T01:31:37.008Z,12.40
2022-08-17T01:34:09.950Z,10.13
2022-08-17T01:36:39.262Z,10.40
2022-08-17T01:39:15.670Z,14.02
2022-08-17T01:41:46.133Z,12.07
2022-08-17T01:44:15.559Z,10.63
2022-08-17T01:46:43.820Z,11.50
2022-08-17T01:49:14.023Z,14.88
2022-08-17T01:51:42.127Z,22.70
2022-08-17T01:54:14.642Z,14.43
2022-08-17T01:56:47.302Z,17.17
2022-08-17T01:59:16.693Z,11.18
2022-08-17T02:01:45.105Z,13.38
2022-08-17T02:04:13.974Z,11.95
2022-08-17T02:06:53.678Z,12.52
2022-08-17T02:09:26.054Z,12.63
2022-08-17T02:11:57.866Z,13.20
2022-08-17T02:14:26.666Z,12.60
2022-08-17T02:16:56.182Z,13.30
2022-08-17T02:19:24.477Z,15.48
2022-08-17T02:21:56.604Z,12.85
2022-08-17T02:24:59.509Z,10.35
2022-08-17T02:27:17.773Z,11.25
2022-08-17T02:29:46.118Z,14.32
2022-08-17T02:32:25.413Z,11.25
2022-08-17T02:34:56.580Z,14.00
2022-08-17T02:37:24.825Z,15.65
2022-08-17T02:39:54.783Z,15.63
2022-08-17T02:42:28.700Z,13.35
2022-08-17T02:44:56.899Z,19.35
2022-08-17T02:47:25.240Z,17.17
2022-08-17T02:49:55.647Z,14.20
2022-08-17T02:52:42.345Z,16.80
2022-08-17T02:55:16.102Z,15.43
2022-08-17T02:57:44.460Z,17.35
2022-08-17T03:00:16.636Z,14.90
2022-08-17T03:02:46.139Z,12.70
2022-08-17T03:05:16.904Z,15.05
2022-08-17T03:07:45.096Z,13.38
2022-08-17T03:10:16.493Z,13.77
2022-08-17T03:12:45.997Z,13.38
2022-08-17T03:15:16.472Z,11.52
2022-08-17T03:17:45.113Z,12.15
2022-08-17T03:20:14.480Z,15.95
2022-08-17T03:22:53.357Z,14.32
2022-08-17T03:25:26.257Z,15.93
2022-08-17T03:27:55.337Z,12.00
2022-08-17T03:30:24.515Z,15.02
2022-08-17T03:32:54.709Z,11.05
2022-08-17T03:35:27.272Z,11.30
2022-08-17T03:38:00.428Z,17.30
2022-08-17T03:40:34.536Z,19.88
2022-08-17T03:43:21.310Z,16.75
2022-08-17T03:46:10.911Z,19.27
2022-08-17T03:49:12.686Z,14.93
2022-08-17T03:51:58.807Z,16.52
2022-08-17T03:54:44.272Z,18.73
2022-08-17T03:57:14.239Z,15.52
2022-08-17T03:59:42.871Z,18.60
2022-08-17T04:02:15.342Z,15.65
2022-08-17T04:04:43.494Z,15.65
2022-08-17T04:07:11.860Z,13.93
2022-08-17T04:09:40.138Z,20.73
2022-08-17T04:12:08.657Z,13.00
2022-08-17T04:14:51.698Z,12.52
2022-08-17T04:17:24.307Z,14.75
2022-08-17T04:19:53.007Z,13.93
2022-08-17T04:22:30.188Z,14.68
2022-08-17T04:24:59.745Z,14.63
2022-08-17T04:27:28.394Z,19.17
2022-08-17T04:30:00.990Z,14.43
2022-08-17T04:33:04.429Z,14.18
2022-08-17T04:35:20.356Z,14.73
2022-08-17T04:37:51.289Z,18.27
2022-08-17T04:40:38.269Z,14.82
2022-08-17T04:43:11.168Z,20.15
2022-08-17T04:45:54.896Z,14.35
2022-08-17T04:48:35.266Z,15.73
2022-08-17T04:51:07.002Z,13.57
2022-08-17T04:53:35.197Z,13.85
2022-08-17T04:56:03.460Z,23.25
2022-08-17T04:58:31.592Z,19.42
2022-08-17T05:01:01.528Z,17.92
2022-08-17T05:03:30.003Z,14.90
2022-08-17T05:05:58.156Z,15.18
2022-08-17T05:08:26.394Z,15.07
2022-08-17T05:10:54.510Z,15.50
2022-08-17T05:13:25.765Z,19.48
2022-08-17T05:15:56.839Z,16.50
2022-08-17T05:18:26.528Z,11.73
2022-08-17T05:20:55.385Z,13.02
2022-08-17T05:23:25.614Z,15.95
2022-08-17T05:25:56.382Z,12.73
2022-08-17T05:28:27.966Z,17.27
2022-08-17T05:30:58.466Z,14.25
2022-08-17T05:33:30.984Z,13.13
2022-08-17T05:36:00.709Z,14.00
2022-08-17T05:38:30.801Z,14.80
2022-08-17T05:41:00.097Z,18.00
2022-08-17T05:43:30.228Z,21.48
2022-08-17T05:46:05.096Z,20.35
2022-08-17T05:48:40.383Z,14.32
2022-08-17T05:51:25.008Z,15.85
2022-08-17T05:54:01.787Z,17.85
2022-08-17T05:56:43.623Z,16.48
2022-08-17T05:59:20.305Z,16.98
2022-08-17T06:01:57.726Z,18.25
2022-08-17T06:04:36.229Z,16.70
2022-08-17T06:07:13.280Z,17.70
2022-08-17T06:09:48.496Z,16.27
2022-08-17T06:12:35.135Z,16.30
2022-08-17T06:15:16.764Z,13.77
2022-08-17T06:17:45.287Z,15.95
2022-08-17T06:20:16.516Z,14.10
2022-08-17T06:22:49.068Z,22.73
2022-08-17T06:25:20.185Z,14.27
2022-08-17T06:27:53.647Z,11.98
2022-08-17T06:30:25.659Z,13.45
2022-08-17T06:32:59.502Z,16.88
2022-08-17T06:35:34.283Z,20.65
2022-08-17T06:38:10.443Z,11.68
2022-08-17T06:41:12.505Z,12.52
2022-08-17T06:43:51.879Z,13.23
2022-08-17T06:46:26.209Z,15.60
2022-08-17T06:49:07.997Z,15.15
2022-08-17T06:51:42.258Z,13.10
2022-08-17T06:54:17.908Z,16.23
2022-08-17T06:56:55.210Z,12.02
2022-08-17T06:59:26.907Z,14.27
2022-08-17T07:02:29.315Z,13.07
2022-08-17T07:05:11.496Z,13.07
2022-08-17T07:08:02.877Z,20.35
2022-08-17T07:10:36.478Z,13.52
2022-08-17T07:13:25.466Z,14.10
2022-08-17T07:15:59.635Z,19.75
2022-08-17T07:18:33.139Z,11.05
2022-08-17T07:21:14.149Z,9.50
2022-08-17T07:24:01.934Z,10.48
2022-08-17T07:26:30.446Z,7.85
2022-08-17T07:29:00.563Z,9.75
2022-08-17T07:31:33.601Z,8.27
2022-08-17T07:34:06.878Z,20.17
2022-08-17T07:36:35.167Z,17.25
2022-08-17T07:39:05.996Z,13.43
2022-08-17T07:41:57.452Z,11.70
2022-08-17T07:44:27.742Z,9.57
2022-08-17T07:47:13.965Z,6.43
2022-08-17T07:49:46.171Z,8.63
2022-08-17T07:52:51.513Z,6.30
2022-08-17T07:55:30.690Z,22.42
2022-08-17T07:57:59.594Z,21.40
2022-08-17T08:00:32.672Z,6.53
2022-08-17T08:03:13.380Z,5.40
2022-08-17T08:05:51.615Z,7.78
2022-08-17T08:08:28.150Z,9.00
2022-08-17T08:11:05.333Z,8.68
2022-08-17T08:13:34.245Z,12.07
2022-08-17T08:16:25.672Z,6.22
2022-08-17T08:18:57.751Z,11.48
2022-08-17T08:21:36.633Z,6.95
2022-08-17T08:24:23.528Z,6.40
2022-08-17T08:27:02.558Z,10.75
2022-08-17T08:29:38.064Z,27.83
2022-08-17T08:32:21.060Z,6.45
2022-08-17T08:35:03.987Z,8.68
2022-08-17T08:37:44.605Z,6.95
2022-08-17T08:40:38.427Z,5.47
2022-08-17T08:43:18.920Z,5.43
2022-08-17T08:45:56.691Z,10.55
2022-08-17T08:48:57.798Z,6.25
2022-08-17T08:51:38.816Z,4.30
2022-08-17T08:54:14.108Z,7.05
2022-08-17T08:57:11.969Z,4.45
2022-08-17T08:59:57.933Z,6.63
2022-08-17T09:02:47.953Z,3.97
2022-08-17T09:05:28.112Z,5.07
2022-08-17T09:08:04.557Z,5.63
2022-08-17T09:10:47.524Z,4.43
2022-08-17T09:13:23.171Z,5.13
2022-08-17T09:15:59.010Z,4.22
2022-08-17T09:18:59.142Z,9.73
2022-08-17T09:21:33.646Z,4.88
2022-08-17T09:24:09.833Z,4.05
2022-08-17T09:26:46.365Z,4.40
2022-08-17T09:29:16.696Z,5.78
2022-08-17T09:31:55.188Z,5.30
2022-08-17T09:34:33.079Z,4.00
2022-08-17T09:37:14.412Z,7.93
2022-08-17T09:39:49.328Z,8.63
2022-08-17T09:42:24.786Z,9.27
2022-08-17T09:44:59.194Z,4.90
2022-08-17T09:47:33.292Z,4.38
2022-08-17T09:50:07.011Z,4.25
2022-08-17T09:52:36.717Z,6.68
2022-08-17T09:55:07.420Z,5.40
2022-08-17T09:57:50.404Z,18.52
2022-08-17T10:00:25.185Z,13.55
2022-08-17T10:03:17.244Z,4.30
2022-08-17T10:05:52.346Z,3.42
2022-08-17T10:08:35.243Z,4.85
2022-08-17T10:11:14.038Z,3.35
2022-08-17T10:13:53.428Z,6.88
2022-08-17T10:16:28.775Z,3.75
2022-08-17T10:19:08.168Z,4.13
2022-08-17T10:22:01.189Z,7.50
2022-08-17T10:25:23.459Z,3.50
2022-08-17T10:28:00.152Z,7.88
2022-08-17T10:30:32.068Z,4.72
2022-08-17T10:33:02.771Z,6.93
2022-08-17T10:35:40.675Z,5.03
2022-08-17T10:38:40.218Z,5.28
2022-08-17T10:41:24.120Z,5.30
2022-08-17T10:44:38.076Z,6.90
2022-08-17T10:47:02.825Z,5.40
2022-08-17T10:49:34.312Z,6.10
2022-08-17T10:52:08.287Z,17.85
2022-08-17T10:54:48.363Z,16.00
2022-08-17T10:57:41.862Z,8.55
2022-08-17T11:00:16.628Z,8.68
2022-08-17T11:02:50.961Z,8.05
2022-08-17T11:05:43.476Z,5.85
2022-08-17T11:08:57.582Z,7.30
2022-08-17T11:12:00.500Z,5.40
2022-08-17T11:14:44.041Z,6.03
2022-08-17T11:17:30.428Z,5.65
2022-08-17T11:20:20.886Z,5.57
2022-08-17T11:23:19.776Z,6.63
2022-08-17T11:25:54.266Z,9.48
2022-08-17T11:28:28.738Z,5.15
2022-08-17T11:31:00.796Z,4.13
2022-08-17T11:33:55.794Z,5.32
2022-08-17T11:36:42.057Z,3.97
2022-08-17T11:39:27.565Z,4.63
2022-08-17T11:42:06.715Z,4.25
2022-08-17T11:44:46.703Z,4.00
2022-08-17T11:47:39.829Z,3.90
2022-08-17T11:50:48.912Z,4.95
2022-08-17T11:54:21.464Z,5.55
2022-08-17T11:56:49.107Z,7.43
2022-08-17T11:59:50.712Z,5.65
2022-08-17T12:02:48.295Z,5.47
2022-08-17T12:05:36.757Z,3.30
2022-08-17T12:08:15.239Z,4.18
2022-08-17T12:11:00.242Z,3.60
2022-08-17T12:13:39.600Z,5.97
2022-08-17T12:16:09.968Z,4.00
2022-08-17T12:18:42.227Z,3.45
2022-08-17T12:21:25.452Z,7.70
2022-08-17T12:23:58.842Z,9.80
2022-08-17T12:26:30.422Z,7.25
2022-08-17T12:29:02.592Z,4.60
2022-08-17T12:31:36.335Z,5.28
2022-08-17T12:34:06.635Z,5.53
2022-08-17T12:36:35.216Z,7.95
2022-08-17T12:39:13.847Z,5.75
2022-08-17T12:41:46.983Z,4.22
2022-08-17T12:44:18.789Z,4.53
2022-08-17T12:46:51.286Z,4.95
2022-08-17T12:49:31.729Z,4.18
2022-08-17T12:52:12.318Z,5.32
2022-08-17T12:54:47.345Z,5.13
2022-08-17T12:57:18.719Z,9.82
2022-08-17T12:59:53.096Z,4.80
2022-08-17T13:02:28.407Z,4.70
2022-08-17T13:05:00.579Z,6.93
2022-08-17T13:07:32.393Z,6.80
2022-08-17T13:10:01.059Z,7.88
2022-08-17T13:12:33.789Z,4.85
2022-08-17T13:15:02.806Z,4.90
2022-08-17T13:17:34.796Z,4.97
2022-08-17T13:20:07.160Z,3.60
2022-08-17T13:22:35.324Z,4.30
2022-08-17T13:25:08.574Z,5.95
2022-08-17T13:27:38.344Z,5.07
2022-08-17T13:30:12.838Z,8.00
2022-08-17T13:32:43.827Z,4.35
2022-08-17T13:35:39.513Z,7.38
2022-08-17T13:38:11.801Z,6.43
2022-08-17T13:40:44.780Z,5.88
2022-08-17T13:43:13.365Z,4.55
2022-08-17T13:45:50.502Z,8.52
2022-08-17T13:48:25.856Z,7.65
2022-08-17T13:51:15.093Z,4.32
2022-08-17T13:53:54.260Z,3.50
2022-08-17T13:56:33.471Z,7.90
2022-08-17T13:59:11.129Z,5.15
2022-08-17T14:01:42.947Z,6.68
2022-08-17T14:04:13.636Z,9.20
2022-08-17T14:06:53.162Z,4.95
2022-08-17T14:09:25.349Z,7.28
2022-08-17T14:11:55.588Z,4.88
2022-08-17T14:14:24.548Z,8.45
2022-08-17T14:16:53.142Z,6.63
2022-08-17T14:19:22.788Z,3.58
2022-08-17T14:21:56.478Z,4.38
2022-08-17T14:24:28.833Z,3.58
2022-08-17T14:26:57.801Z,6.45
2022-08-17T14:29:28.985Z,8.90
2022-08-17T14:31:58.717Z,7.53
2022-08-17T14:34:27.354Z,11.38
2022-08-17T14:36:57.642Z,3.70
2022-08-17T14:39:25.792Z,7.03
2022-08-17T14:41:54.208Z,6.78
2022-08-17T14:44:22.325Z,5.57
2022-08-17T14:46:50.617Z,7.47
2022-08-17T14:49:19.863Z,6.60
2022-08-17T14:51:49.293Z,4.18
2022-08-17T14:54:34.362Z,5.32
2022-08-17T14:57:22.764Z,9.73
2022-08-17T14:59:54.871Z,6.95
2022-08-17T15:02:30.215Z,6.35
2022-08-17T15:05:00.442Z,9.65
2022-08-17T15:07:30.422Z,4.20
2022-08-17T15:10:02.107Z,8.43
2022-08-17T15:12:33.697Z,3.60
2022-08-17T15:15:04.666Z,3.33
2022-08-17T15:17:44.701Z,4.68
2022-08-17T15:20:16.413Z,6.43
2022-08-17T15:22:46.526Z,5.65
2022-08-17T15:25:16.509Z,3.42
2022-08-17T15:27:44.688Z,3.70
2022-08-17T15:30:13.868Z,5.30
2022-08-17T15:32:45.783Z,5.60
2022-08-17T15:35:26.960Z,7.95
2022-08-17T15:37:57.853Z,12.40
2022-08-17T15:40:27.526Z,4.30
2022-08-17T15:42:57.756Z,4.10
2022-08-17T15:45:28.380Z,6.63
2022-08-17T15:47:56.479Z,4.25
2022-08-17T15:50:24.626Z,7.18
2022-08-17T15:52:57.884Z,7.45
2022-08-17T15:55:29.140Z,6.60
2022-08-17T15:57:57.252Z,8.00
2022-08-17T16:00:26.896Z,4.85
2022-08-17T16:03:45.126Z,7.88
2022-08-17T16:05:43.612Z,4.18
2022-08-17T16:08:12.589Z,4.53
2022-08-17T16:10:44.358Z,3.80
2022-08-17T16:13:17.899Z,4.35
2022-08-17T16:15:51.045Z,6.82
2022-08-17T16:18:26.418Z,6.35
2022-08-17T16:20:55.054Z,5.05
2022-08-17T16:23:23.463Z,4.95
2022-08-17T16:25:54.397Z,3.95
2022-08-17T16:28:23.279Z,6.40
2022-08-17T16:31:07.919Z,5.88
2022-08-17T16:33:37.680Z,5.47
2022-08-17T16:36:07.271Z,9.23
2022-08-17T16:38:35.765Z,4.45
2022-08-17T16:41:05.866Z,5.93
2022-08-17T16:43:34.678Z,5.80
2022-08-17T16:46:03.245Z,5.57
2022-08-17T16:48:31.986Z,6.05
2022-08-17T16:51:03.756Z,12.05
2022-08-17T16:53:33.129Z,14.60
2022-08-17T16:56:01.232Z,8.93
2022-08-17T16:58:30.696Z,12.32
2022-08-17T17:00:59.734Z,10.13
2022-08-17T17:03:30.262Z,18.15
2022-08-17T17:06:09.980Z,12.15
2022-08-17T17:08:44.907Z,9.10
2022-08-17T17:11:19.376Z,6.82
2022-08-17T17:13:54.130Z,7.43
2022-08-17T17:16:29.574Z,11.18
2022-08-17T17:19:09.196Z,7.72
2022-08-17T17:21:43.647Z,10.95
2022-08-17T17:24:18.043Z,10.23
2022-08-17T17:27:09.459Z,6.68
2022-08-17T17:29:52.453Z,10.18
2022-08-17T17:32:27.024Z,9.70
2022-08-17T17:35:01.968Z,12.43
2022-08-17T17:37:35.040Z,12.48
2022-08-17T17:40:06.788Z,21.45
2022-08-17T17:42:35.395Z,11.80
2022-08-17T17:45:13.181Z,9.60
2022-08-17T17:47:41.824Z,11.35
2022-08-17T17:50:10.309Z,17.50
2022-08-17T17:52:48.518Z,10.60
2022-08-17T17:55:30.996Z,18.85
2022-08-17T17:58:08.050Z,13.65
2022-08-17T18:00:45.198Z,16.90
2022-08-17T18:03:24.884Z,6.80
2022-08-17T18:06:09.862Z,10.95
2022-08-17T18:08:48.930Z,8.68
2022-08-17T18:11:38.311Z,10.15
2022-08-17T18:14:17.637Z,10.02
2022-08-17T18:16:48.238Z,13.27
2022-08-17T18:19:20.071Z,9.65
2022-08-17T18:21:53.200Z,13.40
2022-08-17T18:24:30.943Z,13.52
2022-08-17T18:27:02.134Z,8.60
2022-08-17T18:29:43.888Z,14.30
2022-08-17T18:32:25.156Z,14.00
2022-08-17T18:34:55.449Z,9.60
2022-08-17T18:37:34.627Z,11.23
2022-08-17T18:40:27.532Z,15.32
2022-08-17T18:43:12.768Z,10.23
2022-08-17T18:45:48.156Z,9.77
2022-08-17T18:48:28.884Z,10.68
2022-08-17T18:50:59.563Z,6.22
2022-08-17T18:53:39.353Z,9.25
2022-08-17T18:56:24.236Z,8.55
2022-08-17T18:58:57.349Z,11.18
2022-08-17T19:01:41.982Z,9.25
2022-08-17T19:04:33.985Z,6.78
2022-08-17T19:07:10.227Z,6.20
2022-08-17T19:09:43.799Z,10.25
2022-08-17T19:12:26.814Z,14.05
2022-08-17T19:14:57.670Z,15.52
2022-08-17T19:17:38.648Z,18.70
2022-08-17T19:20:13.985Z,18.52
2022-08-17T19:22:58.029Z,16.42
2022-08-17T19:25:30.536Z,9.35
2022-08-17T19:28:04.149Z,17.33
2022-08-17T19:30:51.146Z,22.00
2022-08-17T19:33:19.510Z,22.02
2022-08-17T19:35:58.413Z,38.33
2022-08-17T19:38:37.317Z,17.73
2022-08-17T19:41:13.065Z,12.90
2022-08-17T19:44:10.453Z,6.78
2022-08-17T19:46:48.620Z,14.23
2022-08-17T19:49:33.010Z,10.00
2022-08-17T19:52:29.233Z,9.05
2022-08-17T19:55:03.408Z,15.35
2022-08-17T19:57:43.182Z,10.25
2022-08-17T20:00:14.742Z,9.90
2022-08-17T20:02:49.239Z,11.32
2022-08-17T20:05:21.295Z,33.42
2022-08-17T20:07:55.264Z,13.90
2022-08-17T20:10:35.387Z,11.02
2022-08-17T20:13:08.872Z,11.45
2022-08-17T20:15:41.641Z,10.35
2022-08-17T20:18:18.518Z,11.88
2022-08-17T20:20:56.793Z,9.65
2022-08-17T20:23:44.776Z,10.82
2022-08-17T20:26:19.980Z,11.80
2022-08-17T20:29:31.864Z,7.80
2022-08-17T20:32:26.773Z,14.65
2022-08-17T20:35:19.646Z,10.68
2022-08-17T20:37:54.984Z,10.38
2022-08-17T20:40:28.263Z,10.43
2022-08-17T20:42:57.751Z,14.13
2022-08-17T20:46:10.737Z,12.30
2022-08-17T20:48:42.871Z,6.30
2022-08-17T20:51:23.593Z,9.63
2022-08-17T20:54:24.073Z,12.40
2022-08-17T20:56:57.827Z,9.32
2022-08-17T20:59:56.321Z,7.85
2022-08-17T21:02:26.626Z,8.35
2022-08-17T21:05:07.261Z,11.10
2022-08-17T21:07:55.712Z,8.90
2022-08-17T21:10:36.473Z,9.85
2022-08-17T21:13:49.249Z,6.88
2022-08-17T21:16:31.436Z,10.30
2022-08-17T21:19:16.891Z,9.35
2022-08-17T21:21:59.069Z,9.32
2022-08-17T21:24:38.440Z,12.20
2022-08-17T21:27:20.233Z,7.88
2022-08-17T21:30:16.296Z,8.18
2022-08-17T21:33:06.823Z,11.40
2022-08-17T21:35:48.533Z,15.45
2022-08-17T21:38:20.501Z,7.28
2022-08-17T21:40:52.016Z,9.52
2022-08-17T21:43:25.716Z,8.48
2022-08-17T21:46:02.656Z,8.05
2022-08-17T21:48:33.721Z,7.40
2022-08-17T21:51:10.547Z,10.02
2022-08-17T21:53:45.509Z,7.65
2022-08-17T21:56:20.960Z,7.47
2022-08-17T21:58:57.185Z,6.90
2022-08-17T22:01:29.440Z,11.98
2022-08-17T22:04:03.296Z,7.72
2022-08-17T22:06:40.657Z,13.10
2022-08-17T22:09:20.043Z,7.78
2022-08-17T22:11:52.799Z,9.75
2022-08-17T22:14:22.559Z,12.05
2022-08-17T22:17:08.298Z,11.13
2022-08-17T22:19:37.573Z,9.52
2022-08-17T22:22:08.181Z,9.30
2022-08-17T22:24:36.978Z,8.32
2022-08-17T22:27:10.356Z,8.05
2022-08-17T22:29:57.027Z,10.50
2022-08-17T22:32:40.764Z,8.30
2022-08-17T22:35:20.584Z,9.25
2022-08-17T22:37:48.912Z,8.23
2022-08-17T22:40:27.319Z,9.65
2022-08-17T22:42:57.218Z,7.97
2022-08-17T22:45:26.793Z,12.27
2022-08-17T22:47:58.698Z,10.20
2022-08-17T22:50:30.274Z,14.55
2022-08-17T22:53:18.860Z,10.07
2022-08-17T22:56:09.824Z,8.60
2022-08-17T22:59:02.657Z,11.27
2022-08-17T23:01:34.806Z,9.95
2022-08-17T23:04:07.940Z,10.95
2022-08-17T23:06:38.033Z,11.98
2022-08-17T23:09:08.101Z,8.30
2022-08-17T23:11:49.290Z,18.48
2022-08-17T23:14:20.226Z,9.23
2022-08-17T23:16:49.038Z,20.92
2022-08-17T23:19:23.218Z,9.15
2022-08-17T23:21:52.631Z,10.95
2022-08-17T23:24:24.811Z,7.80
2022-08-17T23:26:53.115Z,6.97
2022-08-17T23:29:21.589Z,7.93
2022-08-17T23:31:51.063Z,8.77
2022-08-17T23:34:20.959Z,7.32
2022-08-17T23:36:53.222Z,8.63
2022-08-17T23:39:27.738Z,7.70
2022-08-17T23:41:57.236Z,10.32
2022-08-17T23:44:25.806Z,7.85
2022-08-17T23:46:54.877Z,9.90
2022-08-17T23:49:25.209Z,7.82
2022-08-17T23:51:55.249Z,12.23
2022-08-17T23:54:28.606Z,9.52
2022-08-17T23:56:56.785Z,12.00
2022-08-17T23:59:26.923Z,9.00
